Flight Track Log - Related Links

Times and Time Zones

All times are in EDT time to prevent confusion due to time zone crossing. See the N810DA flight status page for this flight to view local times or setup timezone preferences in your user account.

Time Position Orientation Groundspeed Altitude Reporting Facility
EDT Latitude Longitude Course Direction KTS MPH feet Rate Location/Type
Wed 09:52:12 PM 30.2669 -97.2339 112° Southeast 114 131 5,600  Level Houston Center
Wed 09:53:13 PM 30.2539 -97.2000 114° Southeast 115 132 5,600 49 Level Houston Center
Wed 09:54:14 PM 30.2386 -97.1681 119° Southeast 113 130 5,700  Climbing Houston Center
Wed 09:55:16 PM 30.2253 -97.1336 114° Southeast 115 132 5,600 -103 Descending Houston Center
Wed 09:56:00 PM 30.3152 -97.3297 112° Southeast  Level Estimated
Wed 09:56:11 PM 30.2131 -97.0958 111° Southeast 118 136 5,500  Level Houston Center
Wed 09:56:54 PM 30.2050 -97.0725 112° Southeast 116 133 5,500  Level Houston Center
Wed 09:57:00 PM 30.3014 -97.2903 112° Southeast  Level Estimated
Wed 09:57:49 PM 30.1961 -97.0397 107° East 114 131 5,500  Level Houston Center
Wed 09:58:19 PM 30.1911 -97.0214 108° East 116 133 5,500  Level Houston Center
Wed 09:59:21 PM 30.1808 -96.9867 109° East 114 131 5,500  Level Houston Center
Wed 10:00:22 PM 30.1697 -96.9514 110° East 116 133 5,500  Level Houston Center
Wed 10:01:23 PM 30.1578 -96.9164 112° Southeast 115 132 5,500  Level Houston Center
Wed 10:02:24 PM 30.1478 -96.8822 109° East 114 131 5,500  Level Houston Center
Wed 10:03:26 PM 30.1361 -96.8475 111° Southeast 115 132 5,500  Level Houston Center
Wed 10:04:27 PM 30.1242 -96.8108 111° Southeast 120 138 5,500 49 Level Houston Center
Wed 10:05:28 PM 30.1131 -96.7781 111° Southeast 112 129 5,600 49 Climbing Houston Center
Wed 10:06:29 PM 30.0992 -96.7386 112° Southeast 120 138 5,600  Level Houston Center
Wed 10:07:02 PM 30.0933 -96.7225 113° Southeast 118 136 5,600  Level Houston Center
Wed 10:08:03 PM 30.0778 -96.6856 116° Southeast 120 138 5,600  Level Houston Center
Wed 10:09:10 PM 30.0619 -96.6464 115° Southeast 118 136 5,600  Level Houston Center
Wed 10:10:04 PM 30.0511 -96.6161 112° Southeast 118 136 5,600  Level Houston Center
Wed 10:10:34 PM 30.0467 -96.5983 106° East 121 139 5,600  Level Houston Center
Wed 10:11:35 PM 30.0347 -96.5636 112° Southeast 119 137 5,600  Level Houston Center
Wed 10:12:36 PM 30.0236 -96.5283 110° East 117 135 5,600 -49 Level Houston Center
Wed 10:13:37 PM 30.0125 -96.4928 110° East 118 136 5,500 -49 Descending Houston Center
Wed 10:14:39 PM 30.0014 -96.4569 110° East 119 137 5,500  Level Houston Center
Wed 10:15:40 PM 29.9906 -96.4203 109° East 121 139 5,500  Level Houston Center
Wed 10:16:41 PM 29.9808 -96.3850 108° East 117 135 5,500 49 Level Houston Center
Wed 10:17:42 PM 29.9722 -96.3431 103° East 111 128 5,600 49 Climbing Houston Center
Wed 10:18:43 PM 29.9747 -96.3058 86° East 116 133 5,600  Level Houston Center
Wed 10:19:44 PM 29.9753 -96.2689 89° East 116 133 5,600 -49 Level Houston Center
Wed 10:20:45 PM 29.9767 -96.2328 87° East 113 130 5,500 -98 Descending Houston Center
Wed 10:21:47 PM 29.9803 -96.1981 83° East 111 128 5,400 -244 Descending Houston Center
Wed 10:22:48 PM 29.9844 -96.1594 83° East 118 136 5,000 -393 Descending Houston Center
Wed 10:23:49 PM 29.9903 -96.1217 80° East 120 138 4,600 -393 Descending Houston Center
Wed 10:24:50 PM 29.9958 -96.0844 80° East 118 136 4,200 -393 Descending Houston Center
Wed 10:25:51 PM 30.0025 -96.0486 78° East 115 132 3,800 -393 Descending Houston Center
Wed 10:26:52 PM 30.0094 -96.0100 78° East 115 132 3,400 -341 Descending Houston Center
Wed 10:27:54 PM 30.0094 -95.9750 90° East 112 129 3,100 -341 Descending Houston Center
Wed 10:28:55 PM 30.0111 -95.9375 87° East 115 132 2,700 -344 Descending Houston Center
Wed 10:29:56 PM 29.9964 -95.9083 120° Southeast 113 130 2,400 -295 Descending Houston Center
Wed 10:30:57 PM 29.9672 -95.8994 165° South 112 129 2,100 -148 Descending Houston Center
Wed 10:31:58 PM 29.9381 -95.8989 179° South 110 127 2,100  Level Houston Center

Login

Don't have an account? Register now (free) for customized features, flight alerts, and more!